Wetterstation-Oberesslingen
Wetterdaten: aktuell Freitag, 24.05.2019 15:00
Datum Zeit Temperatur Temp+5cm Luftfeuchte Luftdruck Regen Wind Richtung Richtung Sonnenschein Zeit Regen ET Solar Taupunkt Windchill Windben
24.05.2019 15:00 22,9 C 27,8 C 42 % 1013,9 hPa 0,0 l/m 3,0 km/h (1 Bft) NO 44 51 min 0 min 0,432 mm 431 W/m 9,3 C 22,9 C 7,6 km/h (2 Bft)
24.05.2019 14:00 23,3 C 30,6 C 39 % 1014,1 hPa 0,0 l/m 5,3 km/h (1 Bft) W-SW 245 57 min 0 min 0,533 mm 740 W/m 8,6 C 23,3 C 12,4 km/h (2 Bft)
24.05.2019 13:00 22,9 C 30,6 C 43 % 1014,4 hPa 0,0 l/m 3,2 km/h (1 Bft) W 276 60 min 0 min 0,533 mm 898 W/m 9,6 C 22,9 C 7,6 km/h (2 Bft)
24.05.2019 12:00 22,3 C 31,7 C 39 % 1014,8 hPa 0,0 l/m 2,1 km/h (1 Bft) SW 224 60 min 0 min 0,508 mm 923 W/m 7,7 C 22,3 C 6,0 km/h (2 Bft)
24.05.2019 11:00 20,6 C 30,0 C 43 % 1015,4 hPa 0,0 l/m 1,1 km/h (1 Bft) S 182 60 min 0 min 0,406 mm 788 W/m 7,6 C 20,6 C 1,1 km/h (1 Bft)
24.05.2019 10:00 17,1 C 22,8 C 54 % 1015,7 hPa 0,0 l/m 1,1 km/h (1 Bft) S-SO 154 57 min 0 min 0,280 mm 466 W/m 7,7 C 17,1 C 1,1 km/h (1 Bft)
24.05.2019 09:00 14,4 C 21,1 C 69 % 1015,8 hPa 0,0 l/m 1,1 km/h (1 Bft) SO 127 60 min 0 min 0,203 mm 457 W/m 8,8 C 14,4 C 1,1 km/h (1 Bft)
24.05.2019 07:50 10,6 C 12,2 C 83 % 1016,1 hPa 0,0 l/m 1,1 km/h (1 Bft) N 0 35 min 0 min 0,025 mm 281 W/m 7,8 C 10,6 C 0,0 km/h (0 Bft)
24.05.2019 06:10 6,8 C 5,0 C 93 % 1016,1 hPa 0,0 l/m 1,1 km/h (1 Bft) N 0 5 min 0 min 0,000 mm 23 W/m 5,7 C 6,8 C 0,0 km/h (0 Bft)
24.05.2019 04:30 7,4 C 5,6 C 91 % 1015,9 hPa 0,0 l/m 1,1 km/h (1 Bft) N 0 0 min 0 min 0,000 mm 0 W/m 6,0 C 7,4 C 0,0 km/h (0 Bft)
24.05.2019 02:50 8,4 C 6,1 C 89 % 1016,4 hPa 0,0 l/m 1,1 km/h (1 Bft) N 0 0 min 0 min 0,000 mm 0 W/m 6,7 C 8,4 C 0,0 km/h (0 Bft)
24.05.2019 01:10 9,6 C 6,7 C 87 % 1016,8 hPa 0,0 l/m 1,1 km/h (1 Bft) N 0 0 min 0 min 0,000 mm 0 W/m 7,5 C 9,6 C 0,0 km/h (0 Bft)
23.05.2019 23:30 11,6 C 8,3 C 83 % 1016,9 hPa 0,0 l/m 1,1 km/h (1 Bft) NO 45 0 min 0 min 0,000 mm 0 W/m 8,8 C 11,6 C 1,6 km/h (1 Bft)
23.05.2019 21:50 15,7 C 12,2 C 62 % 1016,7 hPa 0,0 l/m 1,1 km/h (1 Bft) NO 45 3 min 0 min 0,051 mm 0 W/m 8,4 C 15,7 C 3,2 km/h (1 Bft)
23.05.2019 20:36 18,7 C 16,1 C 51 % 1016,4 hPa 0,0 l/m 4,0 km/h (1 Bft) N-NO 20 9 min 0 min 0,127 mm 21 W/m 8,4 C 18,7 C 12,4 km/h (2 Bft)
23.05.2019 19:36 20,7 C 18,9 C 43 % 1016,3 hPa 0,0 l/m 5,3 km/h (1 Bft) N-NW 341 60 min 0 min 0,229 mm 128 W/m 7,7 C 20,7 C 10,8 km/h (2 Bft)
23.05.2019 18:36 21,5 C 21,1 C 38 % 1016,6 hPa 0,0 l/m 4,9 km/h (1 Bft) W-NW 291 60 min 0 min 0,330 mm 316 W/m 6,6 C 21,5 C 12,4 km/h (2 Bft)
23.05.2019 17:33 21,6 C 27,2 C 40 % 1016,9 hPa 0,0 l/m 3,4 km/h (1 Bft) SO 126 60 min 0 min 0,432 mm 501 W/m 7,4 C 21,6 C 6,0 km/h (2 Bft)
23.05.2019 16:33 21,3 C 28,9 C 38 % 1017,4 hPa 0,0 l/m 6,9 km/h (2 Bft) SO 124 33 min 0 min 0,482 mm 649 W/m 6,4 C 21,3 C 17,2 km/h (3 Bft)
23.05.2019 16:00 21,4 C 28,3 C 36 % 1017,8 hPa 0,0 l/m 6,8 km/h (2 Bft) S-SO 150 0 min 0 min 0,482 mm 698 W/m 5,7 C 21,4 C 10,8 km/h (2 Bft)
_ Min-Zeit 05:35 05:05 17:09 14:57 - 21:45 - - - - - - 17:36 05:35 22:25
Minimum _ 6,7 C 4,4 C 34 % 1013,9 hPa - 1,1 km/h (1 Bft) - - - - - - 5,0 C 6,7 C 0,0 km/h (0 Bft)
_ Max-Zeit 13:57 12:18 05:15 16:00 16:00 12:36 - - 08:12 16:00 13:00 12:15 14:57 13:57 16:33
Maximum _ 23,5 C 32,2 C 93 % 1017,8 hPa 0,0 l/m 7,9 km/h
S (2 Bft)
- - 7 min 0 min 0,533 mm 991 W/m 10,1 C 23,5 C 17,2 km/h
O (3 Bft)
Durchschnitt _ 15,8 C 17,6 C 62 % 1016,2 hPa #0,0 l/m 2,7 km/h (1 Bft) N - #7:35 h #0 min. #2,489 mm 497 W/m 7,4 C 15,8 C 4,3 km/h (1 Bft)